Time;durP1;ratioP1;P1;durP2;ratioP2;P2;SDS_P1;SDS_P2;PMS_P1;PMS_P2;Temp;Humidity;BMP_temperature;BMP_pressure;BME280_temperature;BME280_humidity;BME280_pressure;Samples;Min_cycle;Max_cycle;Signal;HPM_P1;HPM_P2
2022/09/20 00:00:02;;;;;;;5.00;1.73;;;;;;;;;;5095906;28;20066;-83
2022/09/20 00:02:32;;;;;;;4.35;1.65;;;;;;;;;;5103905;28;20026;-83
2022/09/20 00:04:58;;;;;;;4.65;1.95;;;;;;;;;;5103598;28;20103;-85
2022/09/20 00:07:24;;;;;;;4.07;2.00;;;;;;;;;;5087434;28;20074;-85
2022/09/20 00:09:50;;;;;;;3.58;1.50;;;;;;;;;;5096931;28;20024;-84
2022/09/20 00:12:16;;;;;;;4.88;2.00;;;;;;;;;;5099239;28;20032;-83
2022/09/20 00:14:42;;;;;;;3.60;1.67;;;;;;;;;;5099468;28;20093;-83
2022/09/20 00:17:09;;;;;;;6.97;1.70;;;;;;;;;;5100146;28;20449;-83
2022/09/20 00:19:36;;;;;;;5.28;1.92;;;;;;;;;;5105390;28;20080;-84
2022/09/20 00:22:02;;;;;;;5.00;2.05;;;;;;;;;;5111990;28;20024;-83
2022/09/20 00:24:28;;;;;;;4.85;1.70;;;;;;;;;;5097765;28;20511;-82
2022/09/20 00:26:54;;;;;;;4.00;1.88;;;;;;;;;;5098596;28;20032;-84
2022/09/20 00:29:20;;;;;;;4.80;2.05;;;;;;;;;;5099135;28;20055;-82
2022/09/20 00:31:46;;;;;;;5.35;1.95;;;;;;;;;;5096393;28;20029;-82
2022/09/20 00:36:57;;;;;;;4.47;2.15;;;;;;;;;;5100001;28;20533;-85
2022/09/20 00:39:23;;;;;;;4.70;2.13;;;;;;;;;;5097911;28;20020;-84
2022/09/20 00:41:49;;;;;;;5.03;2.30;;;;;;;;;;5100847;28;20464;-84
2022/09/20 00:44:34;;;;;;;5.53;2.25;;;;;;;;;;5098017;28;20369;-84
2022/09/20 00:47:01;;;;;;;4.20;2.28;;;;;;;;;;5087210;28;20492;-83
2022/09/20 00:49:27;;;;;;;4.57;2.22;;;;;;;;;;5113723;28;20019;-81
2022/09/20 00:51:59;;;;;;;5.50;2.45;;;;;;;;;;5098682;28;20085;-82
2022/09/20 00:54:26;;;;;;;5.35;2.45;;;;;;;;;;5110478;28;20028;-83
2022/09/20 00:56:52;;;;;;;5.15;2.22;;;;;;;;;;5119665;28;20042;-82
2022/09/20 00:59:30;;;;;;;5.93;2.55;;;;;;;;;;5113371;28;20123;-83
2022/09/20 01:02:02;;;;;;;5.15;2.17;;;;;;;;;;5099246;28;20023;-83
2022/09/20 01:04:29;;;;;;;4.85;2.53;;;;;;;;;;5089094;28;20024;-83
2022/09/20 01:06:57;;;;;;;5.18;2.47;;;;;;;;;;5098051;28;20035;-83
2022/09/20 01:09:23;;;;;;;5.47;2.15;;;;;;;;;;5082371;28;20024;-84
2022/09/20 01:11:50;;;;;;;5.38;2.40;;;;;;;;;;5099316;28;20081;-84
2022/09/20 01:14:17;;;;;;;5.35;2.17;;;;;;;;;;5098410;28;20036;-83
2022/09/20 01:16:44;;;;;;;6.22;2.88;;;;;;;;;;5103583;28;20020;-83
2022/09/20 01:19:18;;;;;;;4.45;2.22;;;;;;;;;;5098949;28;20546;-83
2022/09/20 01:21:45;;;;;;;5.93;2.30;;;;;;;;;;5099380;28;20024;-83
2022/09/20 01:24:26;;;;;;;5.32;2.47;;;;;;;;;;5100458;28;20024;-83
2022/09/20 01:26:52;;;;;;;5.28;2.40;;;;;;;;;;5118831;28;20023;-83
2022/09/20 01:29:24;;;;;;;4.25;2.13;;;;;;;;;;5109361;28;20028;-83
2022/09/20 01:31:52;;;;;;;6.25;2.38;;;;;;;;;;5101237;28;20059;-84
2022/09/20 01:34:40;;;;;;;4.00;2.00;;;;;;;;;;5101353;28;20074;-84
2022/09/20 01:37:16;;;;;;;5.07;2.65;;;;;;;;;;5101353;28;20032;-83
2022/09/20 01:39:51;;;;;;;5.07;2.50;;;;;;;;;;5082097;28;20028;-83
2022/09/20 01:42:17;;;;;;;5.00;2.60;;;;;;;;;;5095283;28;20076;-83
2022/09/20 01:44:49;;;;;;;5.78;2.45;;;;;;;;;;5099345;28;20119;-83
2022/09/20 01:47:27;;;;;;;4.50;2.42;;;;;;;;;;5100969;28;20480;-83
2022/09/20 01:50:12;;;;;;;4.90;2.30;;;;;;;;;;5097947;28;20024;-83
2022/09/20 01:52:44;;;;;;;4.50;2.05;;;;;;;;;;5119260;28;20510;-83
2022/09/20 01:55:29;;;;;;;4.00;2.03;;;;;;;;;;5102641;28;20479;-82
2022/09/20 01:58:11;;;;;;;4.63;2.20;;;;;;;;;;5098972;28;20392;-83
2022/09/20 02:00:50;;;;;;;4.70;2.25;;;;;;;;;;5098970;28;20506;-84
2022/09/20 02:03:41;;;;;;;5.50;2.20;;;;;;;;;;5095493;28;20024;-83
2022/09/20 02:06:13;;;;;;;5.40;2.70;;;;;;;;;;5099619;28;20649;-83
2022/09/20 02:08:58;;;;;;;4.80;2.28;;;;;;;;;;5101319;28;20134;-82
2022/09/20 02:11:43;;;;;;;6.65;2.50;;;;;;;;;;5103715;28;20072;-82
2022/09/20 02:14:21;;;;;;;4.53;2.28;;;;;;;;;;5117406;28;20024;-84
2022/09/20 02:16:53;;;;;;;4.50;2.00;;;;;;;;;;5120342;28;20027;-82
2022/09/20 02:19:25;;;;;;;5.03;2.40;;;;;;;;;;5121420;28;20024;-82
2022/09/20 02:21:51;;;;;;;4.22;2.25;;;;;;;;;;5120591;28;20011;-82
2022/09/20 02:24:40;;;;;;;4.97;1.98;;;;;;;;;;5101202;28;20042;-82
2022/09/20 02:27:17;;;;;;;4.28;2.30;;;;;;;;;;5098115;28;20055;-82
2022/09/20 02:30:03;;;;;;;4.80;2.40;;;;;;;;;;5101498;28;20111;-82
2022/09/20 02:32:31;;;;;;;4.30;2.28;;;;;;;;;;5100660;28;20031;-82
2022/09/20 02:34:58;;;;;;;4.80;2.08;;;;;;;;;;5095939;28;20542;-83
2022/09/20 02:37:47;;;;;;;6.43;2.22;;;;;;;;;;5085822;28;20135;-84
2022/09/20 02:40:23;;;;;;;5.40;2.42;;;;;;;;;;5098765;28;20040;-83
2022/09/20 02:42:57;;;;;;;5.35;2.38;;;;;;;;;;5111519;28;20036;-82
2022/09/20 02:45:43;;;;;;;5.20;2.58;;;;;;;;;;5100295;28;20412;-85
2022/09/20 02:48:09;;;;;;;6.53;2.85;;;;;;;;;;5104479;28;20028;-83
2022/09/20 02:50:57;;;;;;;5.43;2.45;;;;;;;;;;5100439;28;20047;-83
2022/09/20 02:56:50;;;;;;;5.18;2.65;;;;;;;;;;5077939;28;20078;-84
2022/09/20 02:59:25;;;;;;;4.70;2.50;;;;;;;;;;5080479;28;20068;-83
2022/09/20 03:01:54;;;;;;;5.55;2.83;;;;;;;;;;5081785;28;20025;-83
2022/09/20 03:04:39;;;;;;;5.55;2.40;;;;;;;;;;5062647;28;20025;-83
2022/09/20 03:07:06;;;;;;;5.40;2.75;;;;;;;;;;5064302;28;20031;-84
2022/09/20 03:09:39;;;;;;;5.05;2.33;;;;;;;;;;5063657;28;20569;-83
2022/09/20 03:12:23;;;;;;;5.60;2.80;;;;;;;;;;5079573;28;20386;-83
2022/09/20 03:15:13;;;;;;;6.90;2.60;;;;;;;;;;5064214;28;20507;-85
2022/09/20 03:17:49;;;;;;;5.97;3.17;;;;;;;;;;5057336;28;20043;-84
2022/09/20 03:20:34;;;;;;;5.20;2.70;;;;;;;;;;5096568;28;20054;-83
2022/09/20 03:23:14;;;;;;;6.00;2.50;;;;;;;;;;5082730;28;20029;-83
2022/09/20 03:25:58;;;;;;;6.43;2.65;;;;;;;;;;5073244;28;20029;-83
2022/09/20 03:28:34;;;;;;;6.90;2.90;;;;;;;;;;5083210;28;20115;-83
2022/09/20 03:31:03;;;;;;;5.35;3.00;;;;;;;;;;5064693;28;20039;-83
2022/09/20 03:33:38;;;;;;;5.60;2.40;;;;;;;;;;5082983;28;20024;-83
2022/09/20 03:36:14;;;;;;;5.93;2.50;;;;;;;;;;5080598;28;20055;-83
2022/09/20 03:38:46;;;;;;;5.28;2.80;;;;;;;;;;5073106;28;20029;-83
2022/09/20 03:41:12;;;;;;;4.50;2.25;;;;;;;;;;5081626;28;20358;-83
2022/09/20 03:43:41;;;;;;;4.45;2.55;;;;;;;;;;5075734;28;20132;-84
2022/09/20 03:46:28;;;;;;;5.38;2.40;;;;;;;;;;5076814;28;20029;-82
2022/09/20 03:49:06;;;;;;;4.82;2.40;;;;;;;;;;5079231;28;20021;-82
2022/09/20 03:51:35;;;;;;;5.05;2.45;;;;;;;;;;5065549;28;20029;-82
2022/09/20 03:54:04;;;;;;;4.78;2.20;;;;;;;;;;5085232;28;20039;-84
2022/09/20 03:56:33;;;;;;;4.50;2.40;;;;;;;;;;5084047;28;20035;-83
2022/09/20 03:59:12;;;;;;;4.90;2.40;;;;;;;;;;5085336;28;20043;-83
2022/09/20 04:01:58;;;;;;;4.63;2.15;;;;;;;;;;5093388;28;20025;-82
2022/09/20 04:04:46;;;;;;;6.35;2.50;;;;;;;;;;5076927;28;20028;-83
2022/09/20 04:07:35;;;;;;;4.32;2.15;;;;;;;;;;5103689;28;20091;-82
2022/09/20 04:10:13;;;;;;;5.03;2.25;;;;;;;;;;5088534;28;20048;-84
2022/09/20 04:12:59;;;;;;;5.63;2.17;;;;;;;;;;5089082;28;21160;-82
2022/09/20 04:15:44;;;;;;;5.20;2.20;;;;;;;;;;5093695;28;20031;-85
2022/09/20 04:18:33;;;;;;;4.82;2.28;;;;;;;;;;5096836;28;20434;-83
2022/09/20 04:21:21;;;;;;;4.88;2.00;;;;;;;;;;5087995;28;20030;-84
2022/09/20 04:24:02;;;;;;;4.18;1.85;;;;;;;;;;5082689;28;20260;-83
2022/09/20 04:26:40;;;;;;;4.60;2.00;;;;;;;;;;5053863;28;20035;-83
2022/09/20 04:29:25;;;;;;;4.60;2.20;;;;;;;;;;5085243;28;20024;-84
2022/09/20 04:32:04;;;;;;;6.72;2.33;;;;;;;;;;5074693;28;20281;-84
2022/09/20 04:38:23;;;;;;;5.30;2.47;;;;;;;;;;5077458;28;20042;-83
2022/09/20 04:41:08;;;;;;;4.55;2.38;;;;;;;;;;5097576;28;20050;-84
2022/09/20 04:43:38;;;;;;;4.40;2.30;;;;;;;;;;5079682;28;20384;-83
2022/09/20 04:46:13;;;;;;;5.70;2.40;;;;;;;;;;5083691;28;20077;-84
2022/09/20 04:48:58;;;;;;;5.30;2.60;;;;;;;;;;5076174;28;20066;-83
2022/09/20 04:51:24;;;;;;;5.43;2.15;;;;;;;;;;5097226;28;20552;-83
2022/09/20 04:53:59;;;;;;;5.95;2.33;;;;;;;;;;5097826;28;20127;-84
2022/09/20 04:56:52;;;;;;;4.85;1.90;;;;;;;;;;5094514;28;20039;-83
2022/09/20 04:59:37;;;;;;;3.80;1.58;;;;;;;;;;5073945;28;20468;-82
2022/09/20 05:02:09;;;;;;;3.63;1.58;;;;;;;;;;5099156;28;20016;-83
2022/09/20 05:04:47;;;;;;;5.18;1.80;;;;;;;;;;5094368;28;20062;-82
2022/09/20 05:07:32;;;;;;;3.97;1.50;;;;;;;;;;5096103;28;20016;-82
2022/09/20 05:09:58;;;;;;;3.20;1.30;;;;;;;;;;5088420;28;20032;-82
2022/09/20 05:12:27;;;;;;;3.92;1.70;;;;;;;;;;5100370;28;20019;-82
2022/09/20 05:14:54;;;;;;;2.88;1.30;;;;;;;;;;5095495;28;20028;-83
2022/09/20 05:17:30;;;;;;;3.33;1.20;;;;;;;;;;5087164;28;20055;-83
2022/09/20 05:20:02;;;;;;;3.13;1.15;;;;;;;;;;5088155;28;20034;-82
2022/09/20 05:22:49;;;;;;;2.30;0.88;;;;;;;;;;5105787;28;20081;-82
2022/09/20 05:25:33;;;;;;;3.25;1.40;;;;;;;;;;5111767;28;20019;-82
2022/09/20 05:28:06;;;;;;;3.17;1.10;;;;;;;;;;5098918;28;20046;-82
2022/09/20 05:30:36;;;;;;;;;;;;;;;;;;5107531;28;20084;-83
2022/09/20 05:33:20;;;;;;;3.28;1.10;;;;;;;;;;5104182;28;19904;-83
2022/09/20 05:36:31;;;;;;;3.17;1.00;;;;;;;;;;5079977;28;20068;-82
2022/09/20 05:39:38;;;;;;;2.67;1.10;;;;;;;;;;5091491;28;20027;-82
2022/09/20 05:42:45;;;;;;;3.05;1.05;;;;;;;;;;5103476;28;20028;-82
2022/09/20 05:45:41;;;;;;;2.22;0.90;;;;;;;;;;5086036;28;20009;-83
2022/09/20 05:48:55;;;;;;;3.00;1.08;;;;;;;;;;5100249;28;20040;-83
2022/09/20 05:51:49;;;;;;;3.75;1.63;;;;;;;;;;5042411;28;20033;-83
2022/09/20 05:54:19;;;;;;;2.72;1.10;;;;;;;;;;5105749;28;20050;-83
2022/09/20 05:57:42;;;;;;;3.67;1.90;;;;;;;;;;5119912;28;20403;-82
2022/09/20 06:06:50;;;;;;;4.82;1.30;;;;;;;;;;5058638;28;20051;-83
2022/09/20 06:09:43;;;;;;;3.20;1.20;;;;;;;;;;5053642;28;20116;-82
2022/09/20 06:12:39;;;;;;;2.92;1.30;;;;;;;;;;5002102;28;20045;-82
2022/09/20 06:15:20;;;;;;;4.22;1.70;;;;;;;;;;5004930;28;20062;-82
2022/09/20 06:17:52;;;;;;;3.20;1.30;;;;;;;;;;5001265;28;21185;-84
2022/09/20 06:20:36;;;;;;;4.03;1.60;;;;;;;;;;5002409;28;20035;-83
2022/09/20 06:23:04;;;;;;;3.92;1.60;;;;;;;;;;5001361;28;20280;-82
2022/09/20 06:25:36;;;;;;;4.00;1.55;;;;;;;;;;4993953;28;20042;-83
2022/09/20 06:28:11;;;;;;;4.22;1.90;;;;;;;;;;5002175;28;20096;-82
2022/09/20 06:30:43;;;;;;;4.70;1.70;;;;;;;;;;5012675;28;20049;-82
2022/09/20 06:33:12;;;;;;;4.22;1.40;;;;;;;;;;5054821;28;20041;-81
2022/09/20 06:35:38;;;;;;;3.53;1.52;;;;;;;;;;5043682;28;20033;-82
2022/09/20 06:41:29;;;;;;;4.05;2.00;;;;;;;;;;5038079;28;20037;-82
2022/09/20 06:43:59;;;;;;;4.45;2.10;;;;;;;;;;5072822;28;20042;-82
2022/09/20 06:46:26;;;;;;;4.50;1.98;;;;;;;;;;5102598;28;20107;-82
2022/09/20 06:48:52;;;;;;;3.75;2.00;;;;;;;;;;5117710;28;20028;-81
2022/09/20 06:51:18;;;;;;;4.53;2.28;;;;;;;;;;5109231;28;20039;-82
2022/09/20 06:53:44;;;;;;;4.00;1.80;;;;;;;;;;5096124;28;20036;-82
2022/09/20 06:56:16;;;;;;;4.40;1.55;;;;;;;;;;5097829;28;20459;-81
2022/09/20 06:58:42;;;;;;;5.15;2.25;;;;;;;;;;5076921;28;20086;-83
2022/09/20 07:01:08;;;;;;;4.10;1.80;;;;;;;;;;5084339;28;20028;-83
2022/09/20 07:03:34;;;;;;;5.63;2.42;;;;;;;;;;5093877;28;20024;-83
2022/09/20 07:06:01;;;;;;;4.32;2.13;;;;;;;;;;5098922;28;20035;-83
2022/09/20 07:08:28;;;;;;;5.38;2.60;;;;;;;;;;5080014;28;20043;-82
2022/09/20 07:10:55;;;;;;;5.05;2.50;;;;;;;;;;5082990;28;20028;-82
2022/09/20 07:13:22;;;;;;;5.00;2.80;;;;;;;;;;5113184;28;20048;-83
2022/09/20 07:15:50;;;;;;;4.30;2.45;;;;;;;;;;5083754;28;20039;-84
2022/09/20 07:18:16;;;;;;;4.90;2.67;;;;;;;;;;5102092;28;20395;-81
2022/09/20 07:20:43;;;;;;;5.43;2.70;;;;;;;;;;5104940;28;20020;-81
2022/09/20 07:23:09;;;;;;;4.38;2.25;;;;;;;;;;5108313;28;20043;-81
2022/09/20 07:25:36;;;;;;;5.18;2.78;;;;;;;;;;5102973;28;20024;-81
2022/09/20 07:28:02;;;;;;;4.93;2.55;;;;;;;;;;5106467;28;20069;-82
2022/09/20 07:30:28;;;;;;;4.72;2.50;;;;;;;;;;5088605;28;20585;-82
2022/09/20 07:32:54;;;;;;;4.43;1.95;;;;;;;;;;5089115;28;20008;-82
2022/09/20 07:35:20;;;;;;;5.68;2.30;;;;;;;;;;5119951;28;20088;-83
2022/09/20 07:37:47;;;;;;;4.30;2.20;;;;;;;;;;5105769;28;20032;-82
2022/09/20 07:40:13;;;;;;;5.05;2.30;;;;;;;;;;5105730;28;20059;-82
2022/09/20 07:42:39;;;;;;;4.90;2.13;;;;;;;;;;5088422;28;20020;-82
2022/09/20 07:45:06;;;;;;;4.30;1.90;;;;;;;;;;5108297;28;20083;-83
2022/09/20 07:47:34;;;;;;;3.92;1.50;;;;;;;;;;5106726;28;20581;-82
2022/09/20 07:50:00;;;;;;;4.15;1.48;;;;;;;;;;5107069;28;20032;-83
2022/09/20 07:52:26;;;;;;;3.83;1.63;;;;;;;;;;5104751;28;20522;-82
2022/09/20 07:54:52;;;;;;;2.78;1.17;;;;;;;;;;5106991;28;20045;-84
2022/09/20 07:57:25;;;;;;;3.67;1.40;;;;;;;;;;5111189;28;20056;-83
2022/09/20 08:03:17;;;;;;;4.07;1.40;;;;;;;;;;5083513;28;20051;-84
2022/09/20 08:06:02;;;;;;;3.75;1.30;;;;;;;;;;5062834;28;20040;-83
2022/09/20 08:08:35;;;;;;;2.65;1.20;;;;;;;;;;5091108;28;20124;-82
2022/09/20 08:11:29;;;;;;;3.60;1.15;;;;;;;;;;5098299;28;20036;-82
2022/09/20 08:13:55;;;;;;;;;;;;;;;;;;5102839;28;20032;-83
2022/09/20 08:16:25;;;;;;;3.60;1.10;;;;;;;;;;5085029;28;19919;-83
2022/09/20 08:19:02;;;;;;;4.47;1.10;;;;;;;;;;5049975;28;20040;-84
2022/09/20 08:21:40;;;;;;;3.95;1.50;;;;;;;;;;5091088;28;20067;-83
2022/09/20 08:24:09;;;;;;;3.78;1.60;;;;;;;;;;5071314;28;20032;-84
2022/09/20 08:26:36;;;;;;;4.47;1.30;;;;;;;;;;5103625;28;20165;-84
2022/09/20 08:29:04;;;;;;;3.17;1.10;;;;;;;;;;5105166;28;20060;-83
2022/09/20 08:31:33;;;;;;;4.65;2.05;;;;;;;;;;5086986;28;20027;-83
2022/09/20 08:34:02;;;;;;;3.92;1.63;;;;;;;;;;5097095;28;20027;-82
2022/09/20 08:36:28;;;;;;;6.15;1.60;;;;;;;;;;5119448;28;20034;-82
2022/09/20 08:39:03;;;;;;;4.47;1.38;;;;;;;;;;5121686;28;20027;-82
2022/09/20 08:41:57;;;;;;;3.67;1.33;;;;;;;;;;5026274;28;20021;-83
2022/09/20 08:44:43;;;;;;;3.15;1.23;;;;;;;;;;5063479;28;20064;-83
2022/09/20 08:47:17;;;;;;;3.67;1.13;;;;;;;;;;5058513;28;20090;-81
2022/09/20 08:49:43;;;;;;;2.65;0.98;;;;;;;;;;5053230;28;20425;-81
2022/09/20 08:52:15;;;;;;;2.80;1.10;;;;;;;;;;5051574;28;20075;-81
2022/09/20 08:54:42;;;;;;;3.03;1.05;;;;;;;;;;5051507;28;20068;-81
2022/09/20 08:57:14;;;;;;;3.30;1.20;;;;;;;;;;5065611;28;20040;-81
2022/09/20 08:59:40;;;;;;;8.32;1.27;;;;;;;;;;5036743;28;20136;-81
2022/09/20 09:02:14;;;;;;;2.83;1.20;;;;;;;;;;5054128;28;20476;-81
2022/09/20 09:04:43;;;;;;;3.03;1.30;;;;;;;;;;5073135;28;20017;-81
2022/09/20 09:07:11;;;;;;;4.07;1.30;;;;;;;;;;5114834;28;20055;-84
2022/09/20 09:09:40;;;;;;;2.08;0.80;;;;;;;;;;5086248;28;20029;-83
2022/09/20 09:12:07;;;;;;;3.83;1.10;;;;;;;;;;5090219;28;20078;-82
2022/09/20 09:17:38;;;;;;;2.80;1.00;;;;;;;;;;5040527;28;20033;-82
2022/09/20 09:20:14;;;;;;;2.13;0.90;;;;;;;;;;5034197;28;20045;-82
2022/09/20 09:22:42;;;;;;;2.33;0.90;;;;;;;;;;5020260;28;20034;-82
2022/09/20 09:25:16;;;;;;;1.77;0.88;;;;;;;;;;5019557;28;20045;-81
2022/09/20 09:27:56;;;;;;;1.65;0.82;;;;;;;;;;5049230;28;20093;-82
2022/09/20 09:30:33;;;;;;;2.80;0.85;;;;;;;;;;5043983;28;20038;-83
2022/09/20 09:33:14;;;;;;;3.95;0.90;;;;;;;;;;5020513;28;20038;-81
2022/09/20 09:35:40;;;;;;;2.00;0.70;;;;;;;;;;5019863;28;20026;-83
2022/09/20 09:38:16;;;;;;;2.20;0.90;;;;;;;;;;5021106;28;20057;-82
2022/09/20 09:40:49;;;;;;;2.17;0.80;;;;;;;;;;5035893;28;20120;-82
2022/09/20 09:43:22;;;;;;;2.03;0.80;;;;;;;;;;5035680;28;20026;-83
2022/09/20 09:45:48;;;;;;;2.25;0.98;;;;;;;;;;5045049;28;20087;-81
2022/09/20 09:48:25;;;;;;;1.98;1.00;;;;;;;;;;5039688;28;20025;-82
2022/09/20 09:51:06;;;;;;;2.40;1.00;;;;;;;;;;5043315;28;20045;-81
2022/09/20 09:53:34;;;;;;;2.00;0.80;;;;;;;;;;5115080;28;20107;-82
2022/09/20 09:56:03;;;;;;;3.00;1.00;;;;;;;;;;5101273;28;20023;-81
2022/09/20 09:58:45;;;;;;;1.85;0.80;;;;;;;;;;5090711;28;20113;-81
2022/09/20 10:01:26;;;;;;;2.65;1.15;;;;;;;;;;5111877;28;20068;-82
2022/09/20 10:04:20;;;;;;;2.92;1.00;;;;;;;;;;5100572;28;20072;-81
2022/09/20 10:06:52;;;;;;;2.08;0.70;;;;;;;;;;5096805;28;20032;-82
2022/09/20 10:09:28;;;;;;;4.47;1.45;;;;;;;;;;5101367;28;20035;-82
2022/09/20 10:11:57;;;;;;;2.03;0.80;;;;;;;;;;5098863;28;20043;-80
2022/09/20 10:14:29;;;;;;;2.28;0.90;;;;;;;;;;5095121;28;20024;-81
2022/09/20 10:17:04;;;;;;;2.40;0.93;;;;;;;;;;5095429;28;20111;-81
2022/09/20 10:19:30;;;;;;;2.58;0.98;;;;;;;;;;5105830;28;20387;-81
2022/09/20 10:22:00;;;;;;;2.25;0.90;;;;;;;;;;5095871;28;20111;-82
2022/09/20 10:24:29;;;;;;;2.05;0.80;;;;;;;;;;5104242;28;20024;-82
2022/09/20 10:26:58;;;;;;;2.15;0.90;;;;;;;;;;5103804;28;20016;-81
2022/09/20 10:29:51;;;;;;;2.50;1.00;;;;;;;;;;5113954;28;20035;-81
2022/09/20 10:32:33;;;;;;;3.20;1.10;;;;;;;;;;5068523;28;20701;-82
2022/09/20 10:35:10;;;;;;;1.95;1.00;;;;;;;;;;5107748;28;20028;-82
2022/09/20 10:37:45;;;;;;;2.42;0.90;;;;;;;;;;5123218;28;20016;-82
2022/09/20 10:40:14;;;;;;;2.47;0.88;;;;;;;;;;5110775;28;20029;-80
2022/09/20 10:45:27;;;;;;;4.20;1.23;;;;;;;;;;5086826;28;20038;-81
2022/09/20 10:47:55;;;;;;;1.83;0.80;;;;;;;;;;5090098;28;20058;-80
2022/09/20 10:50:33;;;;;;;2.08;0.88;;;;;;;;;;5093980;28;20055;-81
2022/09/20 10:53:17;;;;;;;2.03;0.80;;;;;;;;;;5096510;28;20039;-80
2022/09/20 10:55:52;;;;;;;2.53;0.80;;;;;;;;;;5096436;28;20024;-80
2022/09/20 10:58:37;;;;;;;1.95;0.80;;;;;;;;;;5079586;28;20027;-81
2022/09/20 11:01:23;;;;;;;1.98;0.73;;;;;;;;;;5109123;28;20023;-80
2022/09/20 11:03:49;;;;;;;2.83;0.80;;;;;;;;;;5107938;28;20471;-81
2022/09/20 11:06:37;;;;;;;2.05;0.57;;;;;;;;;;5098056;28;20028;-82
2022/09/20 11:09:05;;;;;;;1.20;0.43;;;;;;;;;;5101134;28;20029;-82
2022/09/20 11:11:31;;;;;;;1.05;0.43;;;;;;;;;;5100827;28;20436;-82
2022/09/20 11:14:03;;;;;;;1.88;0.60;;;;;;;;;;5108476;28;20020;-82
2022/09/20 11:16:37;;;;;;;3.42;1.00;;;;;;;;;;5077542;28;20032;-82
2022/09/20 11:19:22;;;;;;;2.45;1.42;;;;;;;;;;5095583;28;20024;-82
2022/09/20 11:21:51;;;;;;;2.13;0.50;;;;;;;;;;5098356;28;20027;-82
2022/09/20 11:24:20;;;;;;;1.13;0.50;;;;;;;;;;5111341;28;20502;-82
2022/09/20 11:26:50;;;;;;;1.80;0.65;;;;;;;;;;5095139;28;20472;-83
2022/09/20 11:29:35;;;;;;;1.77;0.70;;;;;;;;;;5090222;28;20020;-82
2022/09/20 11:32:10;;;;;;;1.70;0.65;;;;;;;;;;5100669;28;20023;-83
2022/09/20 11:34:39;;;;;;;2.08;0.88;;;;;;;;;;5111251;28;20036;-82
2022/09/20 11:37:05;;;;;;;2.55;0.95;;;;;;;;;;5097244;28;20036;-82
2022/09/20 11:39:39;;;;;;;1.88;0.73;;;;;;;;;;5095075;28;20020;-83
2022/09/20 11:42:06;;;;;;;1.67;0.65;;;;;;;;;;5088949;28;20021;-82
2022/09/20 11:44:40;;;;;;;2.97;0.80;;;;;;;;;;5111299;28;20060;-82
2022/09/20 11:47:30;;;;;;;1.40;0.68;;;;;;;;;;5094007;28;20032;-82
2022/09/20 11:50:11;;;;;;;2.72;0.80;;;;;;;;;;5086903;28;20063;-82
2022/09/20 11:52:46;;;;;;;2.80;0.80;;;;;;;;;;5095008;28;20480;-82
2022/09/20 11:55:29;;;;;;;2.17;0.93;;;;;;;;;;5094343;28;20094;-82
2022/09/20 11:58:03;;;;;;;2.43;1.00;;;;;;;;;;5091772;28;20024;-83
2022/09/20 12:00:31;;;;;;;2.80;1.00;;;;;;;;;;5096978;28;20027;-83
2022/09/20 12:02:58;;;;;;;1.90;0.82;;;;;;;;;;5089692;28;20024;-82
2022/09/20 12:05:25;;;;;;;1.95;0.80;;;;;;;;;;5096567;28;20039;-82
2022/09/20 12:07:53;;;;;;;3.28;1.80;;;;;;;;;;5095583;28;20024;-82
2022/09/20 12:10:21;;;;;;;3.88;1.33;;;;;;;;;;5089077;28;20055;-83
2022/09/20 12:12:49;;;;;;;5.03;2.00;;;;;;;;;;5118398;28;20055;-83
2022/09/20 12:15:35;;;;;;;3.80;1.70;;;;;;;;;;5079104;28;20032;-84
2022/09/20 12:18:14;;;;;;;3.05;1.30;;;;;;;;;;5065143;28;20027;-84
2022/09/20 12:20:41;;;;;;;3.08;1.17;;;;;;;;;;5096682;28;20028;-83
2022/09/20 12:23:26;;;;;;;2.30;0.93;;;;;;;;;;5097206;28;20077;-84
2022/09/20 12:26:00;;;;;;;2.50;1.05;;;;;;;;;;5098826;28;20024;-83
2022/09/20 12:28:33;;;;;;;2.72;1.10;;;;;;;;;;5097152;28;20057;-83
2022/09/20 12:31:18;;;;;;;5.65;1.75;;;;;;;;;;5097796;28;20032;-83
2022/09/20 12:34:02;;;;;;;3.30;1.30;;;;;;;;;;5077404;28;20032;-82
2022/09/20 12:36:34;;;;;;;3.05;1.05;;;;;;;;;;5069937;28;20068;-83
2022/09/20 12:39:10;;;;;;;3.97;1.42;;;;;;;;;;5076529;28;20024;-83
2022/09/20 12:41:50;;;;;;;4.15;1.40;;;;;;;;;;5093475;28;20016;-83
2022/09/20 12:44:25;;;;;;;3.00;1.20;;;;;;;;;;5086946;28;20029;-83
2022/09/20 12:46:53;;;;;;;4.35;1.40;;;;;;;;;;5076440;28;20450;-83
2022/09/20 12:55:31;;;;;;;1.75;0.73;;;;;;;;;;5104121;28;20073;-82
2022/09/20 12:58:06;;;;;;;2.83;1.00;;;;;;;;;;5077579;28;20024;-83
2022/09/20 13:00:36;;;;;;;3.00;1.20;;;;;;;;;;5106026;28;20046;-83
2022/09/20 13:03:22;;;;;;;2.95;1.10;;;;;;;;;;5093221;28;20369;-86
2022/09/20 13:06:08;;;;;;;3.17;1.50;;;;;;;;;;5084360;28;20035;-85
2022/09/20 13:08:41;;;;;;;7.63;2.10;;;;;;;;;;5083973;28;20502;-84
2022/09/20 13:11:15;;;;;;;5.93;2.33;;;;;;;;;;5077566;28;20028;-84
2022/09/20 13:14:00;;;;;;;4.63;1.95;;;;;;;;;;5059648;28;20032;-85
2022/09/20 13:16:29;;;;;;;4.00;1.67;;;;;;;;;;5089760;28;20047;-85
2022/09/20 13:19:05;;;;;;;4.88;1.42;;;;;;;;;;5092417;28;20027;-84
2022/09/20 13:21:37;;;;;;;4.40;1.67;;;;;;;;;;5079362;28;20027;-85
2022/09/20 13:24:03;;;;;;;3.20;1.27;;;;;;;;;;5081086;28;20099;-86
2022/09/20 13:26:33;;;;;;;3.50;1.50;;;;;;;;;;5075931;28;20028;-85
2022/09/20 13:29:00;;;;;;;3.22;1.48;;;;;;;;;;5098395;28;20035;-84
2022/09/20 13:31:28;;;;;;;4.57;1.23;;;;;;;;;;5088490;28;20047;-85
2022/09/20 13:33:54;;;;;;;5.03;1.50;;;;;;;;;;5103518;28;20554;-86
2022/09/20 13:36:26;;;;;;;3.92;1.90;;;;;;;;;;5093971;28;20028;-85
2022/09/20 13:38:54;;;;;;;4.60;2.05;;;;;;;;;;5083908;28;20607;-85
2022/09/20 13:41:20;;;;;;;4.07;1.85;;;;;;;;;;5097073;28;20035;-85
2022/09/20 13:43:48;;;;;;;3.65;1.40;;;;;;;;;;5083728;28;20031;-83
2022/09/20 13:46:21;;;;;;;5.95;1.60;;;;;;;;;;5107553;28;20050;-84
2022/09/20 13:48:48;;;;;;;4.03;1.67;;;;;;;;;;5107897;28;20024;-83
2022/09/20 13:51:17;;;;;;;3.72;1.60;;;;;;;;;;5095444;28;20525;-84
2022/09/20 13:53:43;;;;;;;3.75;1.50;;;;;;;;;;5102083;28;20048;-84
2022/09/20 13:56:21;;;;;;;4.53;1.70;;;;;;;;;;5103887;28;20038;-84
2022/09/20 13:58:47;;;;;;;3.97;1.50;;;;;;;;;;5094966;28;20035;-81
2022/09/20 14:01:20;;;;;;;3.03;1.30;;;;;;;;;;5110438;28;20020;-84
2022/09/20 14:03:46;;;;;;;4.03;1.45;;;;;;;;;;5099284;28;20102;-85
2022/09/20 14:06:14;;;;;;;4.32;1.42;;;;;;;;;;5106991;28;20024;-84
2022/09/20 14:08:45;;;;;;;2.75;1.10;;;;;;;;;;5097588;28;20499;-84
2022/09/20 14:11:15;;;;;;;2.67;1.00;;;;;;;;;;5100077;28;20560;-84
2022/09/20 14:13:41;;;;;;;2.55;1.08;;;;;;;;;;5119669;28;20021;-84
2022/09/20 14:16:08;;;;;;;3.45;1.30;;;;;;;;;;5091282;28;20578;-84
2022/09/20 14:18:36;;;;;;;2.75;1.23;;;;;;;;;;5094652;28;20024;-83
2022/09/20 14:21:03;;;;;;;4.25;1.42;;;;;;;;;;5093295;28;20031;-83
2022/09/20 14:23:29;;;;;;;3.40;1.27;;;;;;;;;;5121644;28;20027;-83
2022/09/20 14:26:06;;;;;;;4.30;1.27;;;;;;;;;;5112973;28;20027;-84
2022/09/20 14:28:32;;;;;;;4.05;1.20;;;;;;;;;;5078574;28;20028;-85
2022/09/20 14:31:11;;;;;;;3.78;1.20;;;;;;;;;;5096076;28;20383;-84
2022/09/20 14:33:40;;;;;;;2.88;1.05;;;;;;;;;;5107290;28;20387;-85
2022/09/20 14:36:11;;;;;;;3.45;1.30;;;;;;;;;;5094223;28;20391;-83
2022/09/20 14:38:37;;;;;;;3.05;1.30;;;;;;;;;;5093713;28;20055;-83
2022/09/20 14:41:03;;;;;;;2.55;0.90;;;;;;;;;;5092029;28;20028;-82
2022/09/20 14:43:33;;;;;;;4.03;1.38;;;;;;;;;;5113916;28;20467;-80
2022/09/20 14:46:03;;;;;;;4.13;1.40;;;;;;;;;;5093106;28;20016;-80
2022/09/20 14:48:40;;;;;;;3.08;1.40;;;;;;;;;;5078103;28;20032;-81
2022/09/20 14:51:09;;;;;;;4.45;1.20;;;;;;;;;;5114047;28;20139;-79
2022/09/20 14:53:37;;;;;;;3.50;1.20;;;;;;;;;;5115888;28;20047;-81
2022/09/20 14:56:06;;;;;;;3.20;1.27;;;;;;;;;;5108839;28;20024;-81
2022/09/20 14:58:33;;;;;;;3.97;1.60;;;;;;;;;;5087890;28;20074;-82
2022/09/20 15:01:03;;;;;;;3.55;1.30;;;;;;;;;;5097425;28;20020;-83
2022/09/20 15:03:33;;;;;;;3.83;1.40;;;;;;;;;;5100970;28;20016;-82
2022/09/20 15:05:59;;;;;;;4.32;1.20;;;;;;;;;;5096327;28;20031;-80
2022/09/20 15:08:25;;;;;;;3.22;1.30;;;;;;;;;;5104598;28;20656;-80
2022/09/20 15:10:52;;;;;;;4.10;1.95;;;;;;;;;;5096015;28;20024;-81
2022/09/20 15:13:18;;;;;;;5.72;2.30;;;;;;;;;;5082333;28;20331;-81
2022/09/20 15:15:46;;;;;;;4.68;1.70;;;;;;;;;;5105367;28;20035;-82
2022/09/20 15:18:22;;;;;;;4.57;1.58;;;;;;;;;;5104512;28;20028;-83
2022/09/20 15:20:49;;;;;;;2.70;1.25;;;;;;;;;;5085492;28;20197;-81
2022/09/20 15:23:15;;;;;;;4.10;1.77;;;;;;;;;;5083053;28;20017;-80
2022/09/20 15:25:41;;;;;;;6.18;2.83;;;;;;;;;;5087865;28;20039;-81
2022/09/20 15:28:11;;;;;;;3.63;1.45;;;;;;;;;;5107155;28;20028;-81
2022/09/20 15:30:37;;;;;;;4.70;1.38;;;;;;;;;;5086298;28;20020;-81
2022/09/20 15:33:03;;;;;;;4.15;1.48;;;;;;;;;;5092634;28;20039;-82
2022/09/20 15:35:29;;;;;;;3.63;1.35;;;;;;;;;;5093205;28;20024;-82
2022/09/20 15:37:55;;;;;;;3.40;1.30;;;;;;;;;;5067537;28;20036;-83
2022/09/20 15:40:21;;;;;;;4.35;1.63;;;;;;;;;;5072869;28;20012;-82
2022/09/20 15:42:47;;;;;;;3.63;1.55;;;;;;;;;;5093883;28;20104;-81
2022/09/20 15:45:13;;;;;;;5.00;1.52;;;;;;;;;;5094609;28;20056;-83
2022/09/20 15:47:39;;;;;;;3.65;1.17;;;;;;;;;;5089209;28;20439;-83
2022/09/20 15:50:07;;;;;;;2.78;1.15;;;;;;;;;;5091160;28;20089;-83
2022/09/20 15:52:38;;;;;;;2.97;1.10;;;;;;;;;;5095287;28;20031;-83
2022/09/20 15:55:05;;;;;;;3.10;1.13;;;;;;;;;;5089530;28;20434;-84